sensor_id;sensor_type;location;lat;lon;timestamp;temperature;humidity
39189;DHT22;24915;50.858;4.376;2023-07-16T00:01:03;18.30;99.90
39189;DHT22;24915;50.858;4.376;2023-07-16T00:03:28;18.30;99.90
39189;DHT22;24915;50.858;4.376;2023-07-16T00:05:54;18.30;99.90
39189;DHT22;24915;50.858;4.376;2023-07-16T00:08:20;18.30;99.90
39189;DHT22;24915;50.858;4.376;2023-07-16T00:10:45;18.20;99.90
39189;DHT22;24915;50.858;4.376;2023-07-16T00:13:11;18.20;99.90
39189;DHT22;24915;50.858;4.376;2023-07-16T00:15:37;18.20;99.90
39189;DHT22;24915;50.858;4.376;2023-07-16T00:18:02;18.10;99.90
39189;DHT22;24915;50.858;4.376;2023-07-16T00:20:28;18.10;99.90
39189;DHT22;24915;50.858;4.376;2023-07-16T00:22:54;18.10;99.90
39189;DHT22;24915;50.858;4.376;2023-07-16T00:25:20;18.10;99.90
39189;DHT22;24915;50.858;4.376;2023-07-16T00:27:46;18.10;99.90
39189;DHT22;24915;50.858;4.376;2023-07-16T00:30:12;18.10;99.90
39189;DHT22;24915;50.858;4.376;2023-07-16T00:32:38;18.00;99.90
39189;DHT22;24915;50.858;4.376;2023-07-16T00:35:04;18.00;99.90
39189;DHT22;24915;50.858;4.376;2023-07-16T00:37:31;18.00;99.90
39189;DHT22;24915;50.858;4.376;2023-07-16T00:39:56;18.00;99.90
39189;DHT22;24915;50.858;4.376;2023-07-16T00:42:22;18.00;99.90
39189;DHT22;24915;50.858;4.376;2023-07-16T00:44:48;17.90;99.90
39189;DHT22;24915;50.858;4.376;2023-07-16T00:47:13;17.90;99.90
39189;DHT22;24915;50.858;4.376;2023-07-16T00:49:39;17.80;99.90
39189;DHT22;24915;50.858;4.376;2023-07-16T00:52:11;17.80;99.90
39189;DHT22;24915;50.858;4.376;2023-07-16T00:54:40;17.80;99.90
39189;DHT22;24915;50.858;4.376;2023-07-16T00:57:06;17.80;99.90
39189;DHT22;24915;50.858;4.376;2023-07-16T00:59:32;17.80;99.90
39189;DHT22;24915;50.858;4.376;2023-07-16T01:01:57;17.70;99.90
39189;DHT22;24915;50.858;4.376;2023-07-16T01:04:23;17.70;99.90
39189;DHT22;24915;50.858;4.376;2023-07-16T01:06:52;17.70;99.90
39189;DHT22;24915;50.858;4.376;2023-07-16T01:09:20;17.70;99.90
39189;DHT22;24915;50.858;4.376;2023-07-16T01:11:48;17.70;99.90
39189;DHT22;24915;50.858;4.376;2023-07-16T01:14:17;17.70;99.90
39189;DHT22;24915;50.858;4.376;2023-07-16T01:16:42;17.70;99.90
39189;DHT22;24915;50.858;4.376;2023-07-16T01:19:09;17.70;99.90
39189;DHT22;24915;50.858;4.376;2023-07-16T01:24:13;17.70;99.90
39189;DHT22;24915;50.858;4.376;2023-07-16T01:29:32;17.60;99.90
39189;DHT22;24915;50.858;4.376;2023-07-16T01:32:00;17.60;99.90
39189;DHT22;24915;50.858;4.376;2023-07-16T01:34:30;17.60;99.90
39189;DHT22;24915;50.858;4.376;2023-07-16T01:36:56;17.60;99.90
39189;DHT22;24915;50.858;4.376;2023-07-16T01:39:22;17.60;99.90
39189;DHT22;24915;50.858;4.376;2023-07-16T01:41:48;17.60;99.90
39189;DHT22;24915;50.858;4.376;2023-07-16T01:44:14;17.50;99.90
39189;DHT22;24915;50.858;4.376;2023-07-16T01:46:39;17.40;99.90
39189;DHT22;24915;50.858;4.376;2023-07-16T01:49:05;17.40;99.90
39189;DHT22;24915;50.858;4.376;2023-07-16T01:51:31;17.40;99.90
39189;DHT22;24915;50.858;4.376;2023-07-16T01:53:56;17.30;99.90
39189;DHT22;24915;50.858;4.376;2023-07-16T01:56:23;17.30;99.90
39189;DHT22;24915;50.858;4.376;2023-07-16T01:58:49;17.30;99.90
39189;DHT22;24915;50.858;4.376;2023-07-16T02:01:14;17.30;99.90
39189;DHT22;24915;50.858;4.376;2023-07-16T02:03:40;17.30;99.90
39189;DHT22;24915;50.858;4.376;2023-07-16T02:06:05;17.30;99.90
39189;DHT22;24915;50.858;4.376;2023-07-16T02:08:31;17.30;99.90
39189;DHT22;24915;50.858;4.376;2023-07-16T02:10:57;17.20;99.90
39189;DHT22;24915;50.858;4.376;2023-07-16T02:13:22;17.20;99.90
39189;DHT22;24915;50.858;4.376;2023-07-16T02:15:48;17.20;99.90
39189;DHT22;24915;50.858;4.376;2023-07-16T02:18:14;17.20;99.90
39189;DHT22;24915;50.858;4.376;2023-07-16T02:20:39;17.10;99.90
39189;DHT22;24915;50.858;4.376;2023-07-16T02:23:05;17.10;99.90
39189;DHT22;24915;50.858;4.376;2023-07-16T02:25:32;17.10;99.90
39189;DHT22;24915;50.858;4.376;2023-07-16T02:27:57;17.10;99.90
39189;DHT22;24915;50.858;4.376;2023-07-16T02:30:23;17.10;99.90
39189;DHT22;24915;50.858;4.376;2023-07-16T02:32:49;17.10;99.90
39189;DHT22;24915;50.858;4.376;2023-07-16T02:35:14;17.00;99.90
39189;DHT22;24915;50.858;4.376;2023-07-16T02:37:40;17.10;99.90
39189;DHT22;24915;50.858;4.376;2023-07-16T02:40:07;17.00;99.90
39189;DHT22;24915;50.858;4.376;2023-07-16T02:42:33;17.00;99.90
39189;DHT22;24915;50.858;4.376;2023-07-16T02:44:58;17.00;99.90
39189;DHT22;24915;50.858;4.376;2023-07-16T02:47:24;17.00;99.90
39189;DHT22;24915;50.858;4.376;2023-07-16T02:49:52;17.00;99.90
39189;DHT22;24915;50.858;4.376;2023-07-16T02:52:18;17.00;99.90
39189;DHT22;24915;50.858;4.376;2023-07-16T02:54:44;17.00;99.90
39189;DHT22;24915;50.858;4.376;2023-07-16T02:57:10;16.90;99.90
39189;DHT22;24915;50.858;4.376;2023-07-16T02:59:35;16.90;99.90
39189;DHT22;24915;50.858;4.376;2023-07-16T03:02:01;16.90;99.90
39189;DHT22;24915;50.858;4.376;2023-07-16T03:04:26;16.90;99.90
39189;DHT22;24915;50.858;4.376;2023-07-16T03:06:52;16.90;99.90
39189;DHT22;24915;50.858;4.376;2023-07-16T03:09:18;16.90;99.90
39189;DHT22;24915;50.858;4.376;2023-07-16T03:11:43;16.90;99.90
39189;DHT22;24915;50.858;4.376;2023-07-16T03:14:09;16.90;99.90
39189;DHT22;24915;50.858;4.376;2023-07-16T03:16:34;16.80;99.90
39189;DHT22;24915;50.858;4.376;2023-07-16T03:19:00;16.80;99.90
39189;DHT22;24915;50.858;4.376;2023-07-16T03:21:26;16.80;99.90
39189;DHT22;24915;50.858;4.376;2023-07-16T03:23:51;16.80;99.90
39189;DHT22;24915;50.858;4.376;2023-07-16T03:26:17;16.80;99.90
39189;DHT22;24915;50.858;4.376;2023-07-16T03:28:42;16.80;99.90
39189;DHT22;24915;50.858;4.376;2023-07-16T03:31:08;16.70;99.90
39189;DHT22;24915;50.858;4.376;2023-07-16T03:33:34;16.70;99.90
39189;DHT22;24915;50.858;4.376;2023-07-16T03:35:59;16.70;99.90
39189;DHT22;24915;50.858;4.376;2023-07-16T03:38:25;16.70;99.90
39189;DHT22;24915;50.858;4.376;2023-07-16T03:40:50;16.60;99.90
39189;DHT22;24915;50.858;4.376;2023-07-16T03:43:17;16.60;99.90
39189;DHT22;24915;50.858;4.376;2023-07-16T03:45:43;16.60;99.90
39189;DHT22;24915;50.858;4.376;2023-07-16T03:48:08;16.60;99.90
39189;DHT22;24915;50.858;4.376;2023-07-16T03:50:34;16.60;99.90
39189;DHT22;24915;50.858;4.376;2023-07-16T03:53:00;16.60;99.90
39189;DHT22;24915;50.858;4.376;2023-07-16T03:55:26;16.60;99.90
39189;DHT22;24915;50.858;4.376;2023-07-16T03:57:51;16.60;99.90
39189;DHT22;24915;50.858;4.376;2023-07-16T04:00:18;16.60;99.90
39189;DHT22;24915;50.858;4.376;2023-07-16T04:02:43;16.60;99.90
39189;DHT22;24915;50.858;4.376;2023-07-16T04:05:09;16.50;99.90
39189;DHT22;24915;50.858;4.376;2023-07-16T04:07:35;16.50;99.90
39189;DHT22;24915;50.858;4.376;2023-07-16T04:10:01;16.50;99.90
39189;DHT22;24915;50.858;4.376;2023-07-16T04:12:26;16.50;99.90
39189;DHT22;24915;50.858;4.376;2023-07-16T04:14:57;16.50;99.90
39189;DHT22;24915;50.858;4.376;2023-07-16T04:17:23;16.40;99.90
39189;DHT22;24915;50.858;4.376;2023-07-16T04:19:49;16.50;99.90
39189;DHT22;24915;50.858;4.376;2023-07-16T04:22:14;16.50;99.90
39189;DHT22;24915;50.858;4.376;2023-07-16T04:24:40;16.50;99.90
39189;DHT22;24915;50.858;4.376;2023-07-16T04:27:05;16.50;99.90
39189;DHT22;24915;50.858;4.376;2023-07-16T04:29:31;16.50;99.90
39189;DHT22;24915;50.858;4.376;2023-07-16T04:31:57;16.50;99.90
39189;DHT22;24915;50.858;4.376;2023-07-16T04:34:22;16.50;99.90
39189;DHT22;24915;50.858;4.376;2023-07-16T04:36:48;16.50;99.90
39189;DHT22;24915;50.858;4.376;2023-07-16T04:39:13;16.50;99.90
39189;DHT22;24915;50.858;4.376;2023-07-16T04:41:39;16.50;99.90
39189;DHT22;24915;50.858;4.376;2023-07-16T04:44:05;16.50;99.90
39189;DHT22;24915;50.858;4.376;2023-07-16T04:46:31;16.50;99.90
39189;DHT22;24915;50.858;4.376;2023-07-16T04:48:56;16.40;99.90
39189;DHT22;24915;50.858;4.376;2023-07-16T04:51:22;16.40;99.90
39189;DHT22;24915;50.858;4.376;2023-07-16T04:53:48;16.40;99.90
39189;DHT22;24915;50.858;4.376;2023-07-16T04:56:15;16.40;99.90
39189;DHT22;24915;50.858;4.376;2023-07-16T04:58:41;16.50;99.90
39189;DHT22;24915;50.858;4.376;2023-07-16T05:01:10;16.50;99.90
39189;DHT22;24915;50.858;4.376;2023-07-16T05:03:36;16.50;99.90
39189;DHT22;24915;50.858;4.376;2023-07-16T05:06:02;16.50;99.90
39189;DHT22;24915;50.858;4.376;2023-07-16T05:08:28;16.50;99.90
39189;DHT22;24915;50.858;4.376;2023-07-16T05:10:54;16.60;99.90
39189;DHT22;24915;50.858;4.376;2023-07-16T05:13:20;16.60;99.90
39189;DHT22;24915;50.858;4.376;2023-07-16T05:15:46;16.60;99.90
39189;DHT22;24915;50.858;4.376;2023-07-16T05:18:11;16.70;99.90
39189;DHT22;24915;50.858;4.376;2023-07-16T05:20:37;16.70;99.90
39189;DHT22;24915;50.858;4.376;2023-07-16T05:23:03;16.70;99.90
39189;DHT22;24915;50.858;4.376;2023-07-16T05:25:28;16.80;99.90
39189;DHT22;24915;50.858;4.376;2023-07-16T05:27:54;16.80;99.90
39189;DHT22;24915;50.858;4.376;2023-07-16T05:30:20;16.80;99.90
39189;DHT22;24915;50.858;4.376;2023-07-16T05:32:46;16.80;99.90
39189;DHT22;24915;50.858;4.376;2023-07-16T05:35:11;16.90;99.90
39189;DHT22;24915;50.858;4.376;2023-07-16T05:37:37;16.90;99.90
39189;DHT22;24915;50.858;4.376;2023-07-16T05:40:03;16.90;99.90
39189;DHT22;24915;50.858;4.376;2023-07-16T05:42:29;16.90;99.90
39189;DHT22;24915;50.858;4.376;2023-07-16T05:44:55;17.00;99.90
39189;DHT22;24915;50.858;4.376;2023-07-16T05:47:20;17.00;99.90
39189;DHT22;24915;50.858;4.376;2023-07-16T05:49:46;17.10;99.90
39189;DHT22;24915;50.858;4.376;2023-07-16T05:52:12;17.20;99.90
39189;DHT22;24915;50.858;4.376;2023-07-16T05:54:38;17.20;99.90
39189;DHT22;24915;50.858;4.376;2023-07-16T05:57:04;17.30;99.90
39189;DHT22;24915;50.858;4.376;2023-07-16T05:59:30;17.40;99.90
39189;DHT22;24915;50.858;4.376;2023-07-16T06:01:56;17.40;99.90
39189;DHT22;24915;50.858;4.376;2023-07-16T06:04:23;17.40;99.90
39189;DHT22;24915;50.858;4.376;2023-07-16T06:06:49;17.40;99.90
39189;DHT22;24915;50.858;4.376;2023-07-16T06:09:14;17.40;99.90
39189;DHT22;24915;50.858;4.376;2023-07-16T06:11:40;17.40;99.90
39189;DHT22;24915;50.858;4.376;2023-07-16T06:14:06;17.40;99.90
39189;DHT22;24915;50.858;4.376;2023-07-16T06:16:31;17.50;99.90
39189;DHT22;24915;50.858;4.376;2023-07-16T06:18:57;17.50;99.90
39189;DHT22;24915;50.858;4.376;2023-07-16T06:21:23;17.60;99.90
39189;DHT22;24915;50.858;4.376;2023-07-16T06:23:48;17.70;99.90
39189;DHT22;24915;50.858;4.376;2023-07-16T06:26:14;17.80;99.90
39189;DHT22;24915;50.858;4.376;2023-07-16T06:28:39;17.80;99.90
39189;DHT22;24915;50.858;4.376;2023-07-16T06:31:05;17.80;99.90
39189;DHT22;24915;50.858;4.376;2023-07-16T06:33:31;17.80;99.90
39189;DHT22;24915;50.858;4.376;2023-07-16T06:35:56;17.80;99.90
39189;DHT22;24915;50.858;4.376;2023-07-16T06:38:22;17.90;99.90
39189;DHT22;24915;50.858;4.376;2023-07-16T06:40:49;18.10;99.90
39189;DHT22;24915;50.858;4.376;2023-07-16T06:43:16;18.20;99.90
39189;DHT22;24915;50.858;4.376;2023-07-16T06:45:42;18.20;99.90
39189;DHT22;24915;50.858;4.376;2023-07-16T06:48:07;18.30;99.90
39189;DHT22;24915;50.858;4.376;2023-07-16T06:50:33;18.30;99.90
39189;DHT22;24915;50.858;4.376;2023-07-16T06:52:59;18.40;99.90
39189;DHT22;24915;50.858;4.376;2023-07-16T06:55:25;18.50;99.90
39189;DHT22;24915;50.858;4.376;2023-07-16T06:57:50;18.50;99.90
39189;DHT22;24915;50.858;4.376;2023-07-16T07:00:16;18.70;99.90
39189;DHT22;24915;50.858;4.376;2023-07-16T07:02:42;18.80;99.90
39189;DHT22;24915;50.858;4.376;2023-07-16T07:05:08;18.90;99.90
39189;DHT22;24915;50.858;4.376;2023-07-16T07:07:33;19.00;99.90
39189;DHT22;24915;50.858;4.376;2023-07-16T07:09:59;19.00;99.90
39189;DHT22;24915;50.858;4.376;2023-07-16T07:12:25;19.00;99.90
39189;DHT22;24915;50.858;4.376;2023-07-16T07:14:51;19.10;99.90
39189;DHT22;24915;50.858;4.376;2023-07-16T07:17:16;19.30;99.90
39189;DHT22;24915;50.858;4.376;2023-07-16T07:19:43;19.40;99.90
39189;DHT22;24915;50.858;4.376;2023-07-16T07:22:09;19.50;99.90
39189;DHT22;24915;50.858;4.376;2023-07-16T07:24:35;19.40;99.90
39189;DHT22;24915;50.858;4.376;2023-07-16T07:27:01;19.20;99.90
39189;DHT22;24915;50.858;4.376;2023-07-16T07:29:27;19.20;99.90
39189;DHT22;24915;50.858;4.376;2023-07-16T07:31:53;19.30;99.90
39189;DHT22;24915;50.858;4.376;2023-07-16T07:34:19;19.20;99.90
39189;DHT22;24915;50.858;4.376;2023-07-16T07:36:45;19.40;99.90
39189;DHT22;24915;50.858;4.376;2023-07-16T07:39:11;19.60;99.90
39189;DHT22;24915;50.858;4.376;2023-07-16T07:41:39;19.60;99.90
39189;DHT22;24915;50.858;4.376;2023-07-16T07:44:04;19.40;99.90
39189;DHT22;24915;50.858;4.376;2023-07-16T07:46:30;19.30;99.90
39189;DHT22;24915;50.858;4.376;2023-07-16T07:48:56;19.30;99.90
39189;DHT22;24915;50.858;4.376;2023-07-16T07:51:21;19.20;99.90
39189;DHT22;24915;50.858;4.376;2023-07-16T07:53:48;19.40;99.90
39189;DHT22;24915;50.858;4.376;2023-07-16T07:56:14;19.50;99.90
39189;DHT22;24915;50.858;4.376;2023-07-16T07:58:39;19.70;99.90
39189;DHT22;24915;50.858;4.376;2023-07-16T08:01:08;19.90;99.90
39189;DHT22;24915;50.858;4.376;2023-07-16T08:03:34;19.90;99.90
39189;DHT22;24915;50.858;4.376;2023-07-16T08:06:00;20.00;99.90
39189;DHT22;24915;50.858;4.376;2023-07-16T08:08:26;20.30;99.90
39189;DHT22;24915;50.858;4.376;2023-07-16T08:10:53;20.40;99.90
39189;DHT22;24915;50.858;4.376;2023-07-16T08:13:19;20.40;99.90
39189;DHT22;24915;50.858;4.376;2023-07-16T08:15:44;20.40;99.90
39189;DHT22;24915;50.858;4.376;2023-07-16T08:18:10;20.40;99.90
39189;DHT22;24915;50.858;4.376;2023-07-16T08:20:36;20.50;99.90
39189;DHT22;24915;50.858;4.376;2023-07-16T08:23:02;20.60;99.90
39189;DHT22;24915;50.858;4.376;2023-07-16T08:25:28;20.70;99.90
39189;DHT22;24915;50.858;4.376;2023-07-16T08:27:54;20.90;99.90
39189;DHT22;24915;50.858;4.376;2023-07-16T08:30:20;20.90;99.90
39189;DHT22;24915;50.858;4.376;2023-07-16T08:32:45;20.80;99.90
39189;DHT22;24915;50.858;4.376;2023-07-16T08:35:11;21.00;99.90
39189;DHT22;24915;50.858;4.376;2023-07-16T08:37:45;21.30;99.90
39189;DHT22;24915;50.858;4.376;2023-07-16T08:40:11;21.20;99.90
39189;DHT22;24915;50.858;4.376;2023-07-16T08:42:38;21.00;99.90
39189;DHT22;24915;50.858;4.376;2023-07-16T08:45:10;20.80;99.90
39189;DHT22;24915;50.858;4.376;2023-07-16T08:47:35;20.80;99.90
39189;DHT22;24915;50.858;4.376;2023-07-16T08:50:02;20.60;99.90
39189;DHT22;24915;50.858;4.376;2023-07-16T08:52:28;20.50;99.90
39189;DHT22;24915;50.858;4.376;2023-07-16T08:54:55;20.40;99.90
39189;DHT22;24915;50.858;4.376;2023-07-16T08:57:20;20.40;99.90
39189;DHT22;24915;50.858;4.376;2023-07-16T08:59:51;20.40;99.90
39189;DHT22;24915;50.858;4.376;2023-07-16T09:02:17;20.30;99.90
39189;DHT22;24915;50.858;4.376;2023-07-16T09:04:45;20.30;99.90
39189;DHT22;24915;50.858;4.376;2023-07-16T09:07:11;20.30;99.90
39189;DHT22;24915;50.858;4.376;2023-07-16T09:09:37;20.30;99.90
39189;DHT22;24915;50.858;4.376;2023-07-16T09:12:03;20.30;99.90
39189;DHT22;24915;50.858;4.376;2023-07-16T09:14:28;20.60;99.90
39189;DHT22;24915;50.858;4.376;2023-07-16T09:16:54;20.70;99.90
39189;DHT22;24915;50.858;4.376;2023-07-16T09:19:21;20.70;99.90
39189;DHT22;24915;50.858;4.376;2023-07-16T09:21:47;20.60;99.90
39189;DHT22;24915;50.858;4.376;2023-07-16T09:24:13;20.60;99.90
39189;DHT22;24915;50.858;4.376;2023-07-16T09:26:50;20.60;99.90
39189;DHT22;24915;50.858;4.376;2023-07-16T09:29:16;20.70;99.90
39189;DHT22;24915;50.858;4.376;2023-07-16T09:31:59;20.70;99.90
39189;DHT22;24915;50.858;4.376;2023-07-16T09:34:29;20.70;99.90
39189;DHT22;24915;50.858;4.376;2023-07-16T09:36:59;20.60;99.90
39189;DHT22;24915;50.858;4.376;2023-07-16T09:39:25;20.50;99.90
39189;DHT22;24915;50.858;4.376;2023-07-16T09:41:52;20.50;99.90
39189;DHT22;24915;50.858;4.376;2023-07-16T09:44:18;20.40;99.90
39189;DHT22;24915;50.858;4.376;2023-07-16T09:46:45;20.40;99.90
39189;DHT22;24915;50.858;4.376;2023-07-16T09:49:11;20.40;99.90
39189;DHT22;24915;50.858;4.376;2023-07-16T09:51:38;20.40;99.90
39189;DHT22;24915;50.858;4.376;2023-07-16T09:54:05;20.50;99.90
39189;DHT22;24915;50.858;4.376;2023-07-16T09:59:13;20.40;99.90
39189;DHT22;24915;50.858;4.376;2023-07-16T10:01:39;20.30;99.90
39189;DHT22;24915;50.858;4.376;2023-07-16T10:04:23;20.30;99.90
39189;DHT22;24915;50.858;4.376;2023-07-16T10:06:52;20.30;99.90
39189;DHT22;24915;50.858;4.376;2023-07-16T10:09:40;20.30;99.90
39189;DHT22;24915;50.858;4.376;2023-07-16T10:14:54;20.30;99.90
39189;DHT22;24915;50.858;4.376;2023-07-16T10:17:24;20.30;99.90
39189;DHT22;24915;50.858;4.376;2023-07-16T10:22:45;20.10;99.90
39189;DHT22;24915;50.858;4.376;2023-07-16T10:27:42;20.10;99.90
39189;DHT22;24915;50.858;4.376;2023-07-16T10:30:08;20.00;99.90
39189;DHT22;24915;50.858;4.376;2023-07-16T10:32:34;20.10;99.90
39189;DHT22;24915;50.858;4.376;2023-07-16T10:35:00;20.10;99.90
39189;DHT22;24915;50.858;4.376;2023-07-16T10:37:26;20.00;99.90
39189;DHT22;24915;50.858;4.376;2023-07-16T10:39:56;20.00;99.90
39189;DHT22;24915;50.858;4.376;2023-07-16T10:42:24;20.10;99.90
39189;DHT22;24915;50.858;4.376;2023-07-16T10:44:50;20.10;99.90
39189;DHT22;24915;50.858;4.376;2023-07-16T10:47:29;20.10;99.90
39189;DHT22;24915;50.858;4.376;2023-07-16T10:49:55;20.10;99.90
39189;DHT22;24915;50.858;4.376;2023-07-16T10:52:22;20.20;99.90
39189;DHT22;24915;50.858;4.376;2023-07-16T10:54:48;20.30;99.90
39189;DHT22;24915;50.858;4.376;2023-07-16T10:57:15;20.50;99.90
39189;DHT22;24915;50.858;4.376;2023-07-16T10:59:42;20.60;99.90
39189;DHT22;24915;50.858;4.376;2023-07-16T11:02:14;20.60;99.90
39189;DHT22;24915;50.858;4.376;2023-07-16T11:04:40;20.50;99.90
39189;DHT22;24915;50.858;4.376;2023-07-16T11:07:10;20.50;99.90
39189;DHT22;24915;50.858;4.376;2023-07-16T11:09:46;20.50;99.90
39189;DHT22;24915;50.858;4.376;2023-07-16T11:12:13;20.60;99.90
39189;DHT22;24915;50.858;4.376;2023-07-16T11:14:52;20.60;99.90
39189;DHT22;24915;50.858;4.376;2023-07-16T11:17:19;20.60;99.90
39189;DHT22;24915;50.858;4.376;2023-07-16T11:19:46;20.60;99.90
39189;DHT22;24915;50.858;4.376;2023-07-16T11:22:13;20.40;99.90
39189;DHT22;24915;50.858;4.376;2023-07-16T11:24:49;20.10;99.90
39189;DHT22;24915;50.858;4.376;2023-07-16T11:27:17;20.00;99.90
39189;DHT22;24915;50.858;4.376;2023-07-16T11:29:52;20.00;99.90
39189;DHT22;24915;50.858;4.376;2023-07-16T11:35:05;20.30;99.90
39189;DHT22;24915;50.858;4.376;2023-07-16T11:37:33;20.40;99.90
39189;DHT22;24915;50.858;4.376;2023-07-16T11:40:04;20.60;99.90
39189;DHT22;24915;50.858;4.376;2023-07-16T11:44:57;20.80;99.90
39189;DHT22;24915;50.858;4.376;2023-07-16T11:47:24;21.10;99.90
39189;DHT22;24915;50.858;4.376;2023-07-16T11:49:50;21.60;99.90
39189;DHT22;24915;50.858;4.376;2023-07-16T11:52:29;22.00;99.90
39189;DHT22;24915;50.858;4.376;2023-07-16T11:54:57;22.20;99.90
39189;DHT22;24915;50.858;4.376;2023-07-16T11:57:27;22.10;99.90
39189;DHT22;24915;50.858;4.376;2023-07-16T11:59:53;22.60;99.90
39189;DHT22;24915;50.858;4.376;2023-07-16T12:02:20;23.00;99.90
39189;DHT22;24915;50.858;4.376;2023-07-16T12:04:46;23.30;99.90
39189;DHT22;24915;50.858;4.376;2023-07-16T12:07:11;23.40;99.90
39189;DHT22;24915;50.858;4.376;2023-07-16T12:09:37;23.40;99.90
39189;DHT22;24915;50.858;4.376;2023-07-16T12:12:03;23.30;99.90
39189;DHT22;24915;50.858;4.376;2023-07-16T12:14:30;23.20;99.90
39189;DHT22;24915;50.858;4.376;2023-07-16T12:16:55;23.10;99.90
39189;DHT22;24915;50.858;4.376;2023-07-16T12:19:22;23.20;99.90
39189;DHT22;24915;50.858;4.376;2023-07-16T12:21:47;23.30;99.70
39189;DHT22;24915;50.858;4.376;2023-07-16T12:24:13;23.20;99.30
39189;DHT22;24915;50.858;4.376;2023-07-16T12:26:39;23.10;99.10
39189;DHT22;24915;50.858;4.376;2023-07-16T12:29:04;22.90;99.00
39189;DHT22;24915;50.858;4.376;2023-07-16T12:31:31;22.70;98.90
39189;DHT22;24915;50.858;4.376;2023-07-16T12:33:57;22.60;99.60
39189;DHT22;24915;50.858;4.376;2023-07-16T12:36:23;22.30;99.50
39189;DHT22;24915;50.858;4.376;2023-07-16T12:38:48;22.20;99.80
39189;DHT22;24915;50.858;4.376;2023-07-16T12:41:14;22.10;99.60
39189;DHT22;24915;50.858;4.376;2023-07-16T12:43:41;21.90;99.90
39189;DHT22;24915;50.858;4.376;2023-07-16T12:46:06;22.10;99.90
39189;DHT22;24915;50.858;4.376;2023-07-16T12:48:33;22.40;99.90
39189;DHT22;24915;50.858;4.376;2023-07-16T12:50:59;23.10;99.70
39189;DHT22;24915;50.858;4.376;2023-07-16T12:53:25;23.50;99.20
39189;DHT22;24915;50.858;4.376;2023-07-16T12:55:51;23.80;98.80
39189;DHT22;24915;50.858;4.376;2023-07-16T12:58:17;23.90;98.00
39189;DHT22;24915;50.858;4.376;2023-07-16T13:00:42;24.00;98.00
39189;DHT22;24915;50.858;4.376;2023-07-16T13:03:08;24.00;96.80
39189;DHT22;24915;50.858;4.376;2023-07-16T13:05:37;23.70;96.80
39189;DHT22;24915;50.858;4.376;2023-07-16T13:08:04;23.60;97.10
39189;DHT22;24915;50.858;4.376;2023-07-16T13:10:30;23.70;97.20
39189;DHT22;24915;50.858;4.376;2023-07-16T13:12:56;23.90;96.70
39189;DHT22;24915;50.858;4.376;2023-07-16T13:15:21;23.80;96.10
39189;DHT22;24915;50.858;4.376;2023-07-16T13:17:47;23.40;96.40
39189;DHT22;24915;50.858;4.376;2023-07-16T13:20:16;23.10;96.80
39189;DHT22;24915;50.858;4.376;2023-07-16T13:22:43;22.90;96.80
39189;DHT22;24915;50.858;4.376;2023-07-16T13:25:08;22.80;96.60
39189;DHT22;24915;50.858;4.376;2023-07-16T13:27:34;22.70;96.60
39189;DHT22;24915;50.858;4.376;2023-07-16T13:30:00;22.50;96.90
39189;DHT22;24915;50.858;4.376;2023-07-16T13:32:25;22.40;97.30
39189;DHT22;24915;50.858;4.376;2023-07-16T13:34:51;22.40;97.80
39189;DHT22;24915;50.858;4.376;2023-07-16T13:37:17;22.50;98.30
39189;DHT22;24915;50.858;4.376;2023-07-16T13:39:42;22.70;98.20
39189;DHT22;24915;50.858;4.376;2023-07-16T13:42:08;22.80;97.90
39189;DHT22;24915;50.858;4.376;2023-07-16T13:44:34;22.80;97.50
39189;DHT22;24915;50.858;4.376;2023-07-16T13:46:59;22.80;97.30
39189;DHT22;24915;50.858;4.376;2023-07-16T13:49:25;22.80;97.20
39189;DHT22;24915;50.858;4.376;2023-07-16T13:51:50;22.80;97.70
39189;DHT22;24915;50.858;4.376;2023-07-16T13:54:16;22.90;97.30
39189;DHT22;24915;50.858;4.376;2023-07-16T13:56:42;23.00;97.30
39189;DHT22;24915;50.858;4.376;2023-07-16T13:59:07;23.10;97.40
39189;DHT22;24915;50.858;4.376;2023-07-16T14:01:38;23.40;96.90
39189;DHT22;24915;50.858;4.376;2023-07-16T14:04:04;23.60;96.10
39189;DHT22;24915;50.858;4.376;2023-07-16T14:06:30;23.80;96.30
39189;DHT22;24915;50.858;4.376;2023-07-16T14:08:56;24.00;95.50
39189;DHT22;24915;50.858;4.376;2023-07-16T14:11:22;24.00;96.00
39189;DHT22;24915;50.858;4.376;2023-07-16T14:13:48;23.90;95.70
39189;DHT22;24915;50.858;4.376;2023-07-16T14:16:20;23.70;96.00
39189;DHT22;24915;50.858;4.376;2023-07-16T14:18:53;23.50;96.40
39189;DHT22;24915;50.858;4.376;2023-07-16T14:21:19;23.50;96.10
39189;DHT22;24915;50.858;4.376;2023-07-16T14:23:45;23.30;96.00
39189;DHT22;24915;50.858;4.376;2023-07-16T14:26:11;23.40;96.50
39189;DHT22;24915;50.858;4.376;2023-07-16T14:28:37;23.70;95.90
39189;DHT22;24915;50.858;4.376;2023-07-16T14:31:03;23.90;95.60
39189;DHT22;24915;50.858;4.376;2023-07-16T14:33:29;23.80;95.30
39189;DHT22;24915;50.858;4.376;2023-07-16T14:35:55;23.80;95.40
39189;DHT22;24915;50.858;4.376;2023-07-16T14:38:20;23.70;95.70
39189;DHT22;24915;50.858;4.376;2023-07-16T14:40:46;23.70;95.80
39189;DHT22;24915;50.858;4.376;2023-07-16T14:43:13;23.70;95.20
39189;DHT22;24915;50.858;4.376;2023-07-16T14:45:39;23.80;95.10
39189;DHT22;24915;50.858;4.376;2023-07-16T14:48:05;23.90;94.60
39189;DHT22;24915;50.858;4.376;2023-07-16T14:50:31;24.00;93.80
39189;DHT22;24915;50.858;4.376;2023-07-16T14:52:57;24.10;93.90
39189;DHT22;24915;50.858;4.376;2023-07-16T14:55:23;24.30;92.60
39189;DHT22;24915;50.858;4.376;2023-07-16T14:57:48;24.40;91.50
39189;DHT22;24915;50.858;4.376;2023-07-16T15:00:14;24.20;91.10
39189;DHT22;24915;50.858;4.376;2023-07-16T15:02:40;23.90;90.70
39189;DHT22;24915;50.858;4.376;2023-07-16T15:05:08;23.80;90.90
39189;DHT22;24915;50.858;4.376;2023-07-16T15:07:35;23.60;91.20
39189;DHT22;24915;50.858;4.376;2023-07-16T15:10:01;23.60;91.50
39189;DHT22;24915;50.858;4.376;2023-07-16T15:12:27;23.60;91.00
39189;DHT22;24915;50.858;4.376;2023-07-16T15:14:53;23.50;91.10
39189;DHT22;24915;50.858;4.376;2023-07-16T15:17:18;23.50;91.50
39189;DHT22;24915;50.858;4.376;2023-07-16T15:19:44;23.50;91.50
39189;DHT22;24915;50.858;4.376;2023-07-16T15:22:10;23.50;91.90
39189;DHT22;24915;50.858;4.376;2023-07-16T15:24:36;23.40;92.10
39189;DHT22;24915;50.858;4.376;2023-07-16T15:27:02;23.60;92.00
39189;DHT22;24915;50.858;4.376;2023-07-16T15:29:29;23.50;92.00
39189;DHT22;24915;50.858;4.376;2023-07-16T15:31:54;23.50;92.10
39189;DHT22;24915;50.858;4.376;2023-07-16T15:34:20;23.70;92.30
39189;DHT22;24915;50.858;4.376;2023-07-16T15:36:46;23.70;92.50
39189;DHT22;24915;50.858;4.376;2023-07-16T15:39:11;23.90;92.50
39189;DHT22;24915;50.858;4.376;2023-07-16T15:41:37;23.90;92.40
39189;DHT22;24915;50.858;4.376;2023-07-16T15:44:03;24.00;92.60
39189;DHT22;24915;50.858;4.376;2023-07-16T15:46:30;23.90;93.00